Terminal Aerodrome Forecast
Issued by NWS

Home | Current Version | Previous Version | Text Only | Print | Product List | Glossary On
Versions: 1 2 3 4 5 6 7 8 9 10 11 12 13 14 15 16 17 18 19 20 21 22 23 24 25 26 27 28 29 30 31 32 33 34 35 36 37 38 39 40 41 42 43 44
000
FTUS44 KHGX 070520
TAFUTS
TAF
KUTS 070520Z 0706/0806 17007KT P6SM SCT020 BKN250
     FM070900 16005KT P6SM BKN015
     FM071400 17011KT P6SM BKN025
     FM071600 17012G20KT P6SM SCT035 SCT250
     FM080100 17008KT P6SM SCT250=

USA.gov is the U.S. government's official web portal to all federal, state and local government web resources and services.